Eizo Maru — JD2944 — position and weather

sailwx.info

Track history (hours):
 
Tides and Currents Weather Stations Pressure Air Temp Water Temp Dewpoint Dewpoint Depression Visibility Wind Speed Wind Dir Waves Ship Positions

Eizo Maru

Last reported at 2015-Mar-31 07:34 UTC. Time now 2015-Mar-31 08:25 UTC.
Position N 35°22' E 139°42'.

Length 80 m; draft 5.2 m.

Type: Tanker. MMSI: 431000976.

Date/timePositionNaut miles runAvg speedWind from/ knotsBaromVisibWave heightAir tempDewpointWater temp
2015-Mar-31 07:34N 35°22' E 139°42'1211.9
2015-Mar-31 06:32N 35°30' E 139°54'6 6.0
2015-Mar-31 05:32N 35°28' E 140°01'0 0.0
2015-Mar-31 04:32N 35°28' E 140°01'0 0.0
2015-Mar-31 03:32N 35°28' E 140°01'0 0.0
2015-Mar-31 02:32N 35°28' E 140°01'0 0.0
2015-Mar-31 01:23N 35°28' E 140°01'2 1.8
2015-Mar-31 00:33N 35°30' E 139°60'1 1.4
2015-Mar-30 23:33N 35°30' E 139°58'0 0.0
2015-Mar-30 22:27N 35°30' E 139°58'0 0.0
2015-Mar-30 21:12N 35°30' E 139°58'0 0.0
2015-Mar-30 20:30N 35°30' E 139°58'0 0.1
2015-Mar-30 19:33N 35°30' E 139°58'0 0.0
2015-Mar-30 18:30N 35°30' E 139°58'0 0.0
2015-Mar-30 17:33N 35°30' E 139°58'0 0.0
2015-Mar-30 16:33N 35°30' E 139°58'0 0.0
2015-Mar-30 15:33N 35°30' E 139°58'0 0.0
2015-Mar-30 14:33N 35°30' E 139°58'0 0.0
2015-Mar-30 13:27N 35°30' E 139°58'0 0.0
2015-Mar-30 12:29N 35°30' E 139°58'3 3.7
2015-Mar-30 11:33N 35°29' E 139°54'1312.5
2015-Mar-30 10:33N 35°19' E 139°44'1212.1
2015-Mar-30 09:33N 35°07' E 139°46'1414.0
2015-Mar-30 08:33N 34°58' E 139°33'5 0.3
2015-Mar-29 14:31N 35°03' E 139°33'1212.9
2015-Mar-29 13:33N 35°11' E 139°45'1211.8
2015-Mar-29 12:33N 35°22' E 139°42'8 8.5
2015-Mar-29 11:33N 35°30' E 139°45'0 0.1
2015-Mar-29 10:13N 35°30' E 139°45'0 0.0
2015-Mar-29 05:26N 35°30' E 139°45'3 3.5
2015-Mar-29 04:33N 35°29' E 139°48'0 0.0
2015-Mar-29 03:30N 35°29' E 139°48'0 0.0
2015-Mar-29 02:33N 35°29' E 139°48'0 0.0
2015-Mar-29 01:33N 35°29' E 139°48'0 0.1
2015-Mar-29 00:34N 35°29' E 139°48'1211.8
2015-Mar-28 23:33N 35°17' E 139°45'1312.8
2015-Mar-28 22:33N 35°04' E 139°45'66 9.0
2015-Mar-28 15:18N 35°40' E 140°53'1 0.0
2015-Mar-27 07:33N 35°39' E 140°53'2913.8
2015-Mar-27 05:27N 35°16' E 140°31'282 6.4
2015-Mar-25 09:33N 34°07' E 134°59'2113.8
2015-Mar-25 08:03N 34°26' E 135°08'714.4
2015-Mar-25 07:33N 34°30' E 135°15'9 1.3
2015-Mar-25 00:28N 34°33' E 135°26'5 5.4
2015-Mar-24 23:32N 34°34' E 135°20'5 5.6
2015-Mar-24 22:33N 34°34' E 135°13'  
Track history (hours):
 
Tides and Currents Weather Stations Pressure Air Temp Water Temp Dewpoint Dewpoint Depression Visibility Wind Speed Wind Dir Waves Ship Positions

Eizo Maru

Last reported at 2015-Mar-31 07:34 UTC. Time now 2015-Mar-31 08:25 UTC.
Position N 35°22' E 139°42'.

Length 80 m; draft 5.2 m.

Type: Tanker. MMSI: 431000976.

Date/timePositionNaut miles runAvg speedWind from/ knotsBaromVisibWave heightAir tempDewpointWater temp
2015-Mar-31 07:34N 35°22' E 139°42'1211.9
2015-Mar-31 06:32N 35°30' E 139°54'6 6.0
2015-Mar-31 05:32N 35°28' E 140°01'0 0.0
2015-Mar-31 04:32N 35°28' E 140°01'0 0.0
2015-Mar-31 03:32N 35°28' E 140°01'0 0.0
2015-Mar-31 02:32N 35°28' E 140°01'0 0.0
2015-Mar-31 01:23N 35°28' E 140°01'2 1.8
2015-Mar-31 00:33N 35°30' E 139°60'1 1.4
2015-Mar-30 23:33N 35°30' E 139°58'0 0.0
2015-Mar-30 22:27N 35°30' E 139°58'0 0.0
2015-Mar-30 21:12N 35°30' E 139°58'0 0.0
2015-Mar-30 20:30N 35°30' E 139°58'0 0.1
2015-Mar-30 19:33N 35°30' E 139°58'0 0.0
2015-Mar-30 18:30N 35°30' E 139°58'0 0.0
2015-Mar-30 17:33N 35°30' E 139°58'0 0.0
2015-Mar-30 16:33N 35°30' E 139°58'0 0.0
2015-Mar-30 15:33N 35°30' E 139°58'0 0.0
2015-Mar-30 14:33N 35°30' E 139°58'0 0.0
2015-Mar-30 13:27N 35°30' E 139°58'0 0.0
2015-Mar-30 12:29N 35°30' E 139°58'3 3.7
2015-Mar-30 11:33N 35°29' E 139°54'1312.5
2015-Mar-30 10:33N 35°19' E 139°44'1212.1
2015-Mar-30 09:33N 35°07' E 139°46'1414.0
2015-Mar-30 08:33N 34°58' E 139°33'5 0.3
2015-Mar-29 14:31N 35°03' E 139°33'1212.9
2015-Mar-29 13:33N 35°11' E 139°45'1211.8
2015-Mar-29 12:33N 35°22' E 139°42'8 8.5
2015-Mar-29 11:33N 35°30' E 139°45'0 0.1
2015-Mar-29 10:13N 35°30' E 139°45'0 0.0
2015-Mar-29 05:26N 35°30' E 139°45'3 3.5
2015-Mar-29 04:33N 35°29' E 139°48'0 0.0
2015-Mar-29 03:30N 35°29' E 139°48'0 0.0
2015-Mar-29 02:33N 35°29' E 139°48'0 0.0
2015-Mar-29 01:33N 35°29' E 139°48'0 0.1
2015-Mar-29 00:34N 35°29' E 139°48'1211.8
2015-Mar-28 23:33N 35°17' E 139°45'1312.8
2015-Mar-28 22:33N 35°04' E 139°45'66 9.0
2015-Mar-28 15:18N 35°40' E 140°53'1 0.0
2015-Mar-27 07:33N 35°39' E 140°53'2913.8
2015-Mar-27 05:27N 35°16' E 140°31'282 6.4
2015-Mar-25 09:33N 34°07' E 134°59'2113.8
2015-Mar-25 08:03N 34°26' E 135°08'714.4
2015-Mar-25 07:33N 34°30' E 135°15'9 1.3
2015-Mar-25 00:28N 34°33' E 135°26'5 5.4
2015-Mar-24 23:32N 34°34' E 135°20'5 5.6
2015-Mar-24 22:33N 34°34' E 135°13'  

Dump ship's entire track history